sensor_id;sensor_type;location;lat;lon;timestamp;pressure;altitude;pressure_sealevel;temperature;humidity
4590;BME280;2307;48.448;9.216;2022-08-18T00:00:25;95190.41;;;18.49;100.00
4590;BME280;2307;48.448;9.216;2022-08-18T00:02:53;95187.72;;;18.49;100.00
4590;BME280;2307;48.448;9.216;2022-08-18T00:05:20;95183.22;;;18.49;100.00
4590;BME280;2307;48.448;9.216;2022-08-18T00:07:46;95179.50;;;18.45;100.00
4590;BME280;2307;48.448;9.216;2022-08-18T00:10:13;95172.63;;;18.39;100.00
4590;BME280;2307;48.448;9.216;2022-08-18T00:12:40;95169.09;;;18.44;100.00
4590;BME280;2307;48.448;9.216;2022-08-18T00:15:08;95158.31;;;18.30;100.00
4590;BME280;2307;48.448;9.216;2022-08-18T00:17:35;95156.22;;;18.27;100.00
4590;BME280;2307;48.448;9.216;2022-08-18T00:20:04;95142.25;;;18.30;100.00
4590;BME280;2307;48.448;9.216;2022-08-18T00:22:31;95145.53;;;18.27;100.00
4590;BME280;2307;48.448;9.216;2022-08-18T00:24:57;95150.50;;;18.15;100.00
4590;BME280;2307;48.448;9.216;2022-08-18T00:27:24;95140.38;;;17.93;100.00
4590;BME280;2307;48.448;9.216;2022-08-18T00:29:52;95138.94;;;18.01;100.00
4590;BME280;2307;48.448;9.216;2022-08-18T00:32:19;95134.91;;;18.03;100.00
4590;BME280;2307;48.448;9.216;2022-08-18T00:34:46;95130.00;;;18.11;100.00
4590;BME280;2307;48.448;9.216;2022-08-18T00:37:14;95126.34;;;18.01;100.00
4590;BME280;2307;48.448;9.216;2022-08-18T00:39:40;95128.91;;;18.12;100.00
4590;BME280;2307;48.448;9.216;2022-08-18T00:42:10;95125.72;;;18.10;100.00
4590;BME280;2307;48.448;9.216;2022-08-18T00:44:37;95120.97;;;18.07;100.00
4590;BME280;2307;48.448;9.216;2022-08-18T00:47:03;95129.47;;;18.09;100.00
4590;BME280;2307;48.448;9.216;2022-08-18T00:49:30;95117.97;;;18.08;100.00
4590;BME280;2307;48.448;9.216;2022-08-18T00:51:56;95116.63;;;18.11;100.00
4590;BME280;2307;48.448;9.216;2022-08-18T00:54:25;95112.28;;;18.15;100.00
4590;BME280;2307;48.448;9.216;2022-08-18T00:56:54;95101.44;;;18.25;100.00
4590;BME280;2307;48.448;9.216;2022-08-18T00:59:22;95107.88;;;18.24;100.00
4590;BME280;2307;48.448;9.216;2022-08-18T01:01:49;95115.84;;;18.29;100.00
4590;BME280;2307;48.448;9.216;2022-08-18T01:04:17;95108.97;;;18.23;100.00
4590;BME280;2307;48.448;9.216;2022-08-18T01:06:47;95105.78;;;18.21;100.00
4590;BME280;2307;48.448;9.216;2022-08-18T01:09:16;95107.16;;;18.18;100.00
4590;BME280;2307;48.448;9.216;2022-08-18T01:11:45;95114.31;;;18.23;100.00
4590;BME280;2307;48.448;9.216;2022-08-18T01:14:11;95115.97;;;18.19;100.00
4590;BME280;2307;48.448;9.216;2022-08-18T01:16:40;95112.22;;;18.20;100.00
4590;BME280;2307;48.448;9.216;2022-08-18T01:19:24;95102.03;;;18.22;100.00
4590;BME280;2307;48.448;9.216;2022-08-18T01:22:10;95098.06;;;18.19;100.00
4590;BME280;2307;48.448;9.216;2022-08-18T01:24:40;95093.44;;;18.25;100.00
4590;BME280;2307;48.448;9.216;2022-08-18T01:27:38;95094.50;;;18.24;100.00
4590;BME280;2307;48.448;9.216;2022-08-18T01:30:07;95079.00;;;18.26;100.00
4590;BME280;2307;48.448;9.216;2022-08-18T01:32:34;95083.69;;;18.15;100.00
4590;BME280;2307;48.448;9.216;2022-08-18T01:35:01;95078.47;;;18.24;100.00
4590;BME280;2307;48.448;9.216;2022-08-18T01:37:28;95082.25;;;18.23;100.00
4590;BME280;2307;48.448;9.216;2022-08-18T01:39:56;95078.06;;;18.17;100.00
4590;BME280;2307;48.448;9.216;2022-08-18T01:42:22;95072.72;;;18.17;100.00
4590;BME280;2307;48.448;9.216;2022-08-18T01:44:48;95071.91;;;18.16;100.00
4590;BME280;2307;48.448;9.216;2022-08-18T01:47:17;95077.47;;;18.20;100.00
4590;BME280;2307;48.448;9.216;2022-08-18T01:49:44;95077.66;;;18.04;100.00
4590;BME280;2307;48.448;9.216;2022-08-18T01:52:10;95079.13;;;18.16;100.00
4590;BME280;2307;48.448;9.216;2022-08-18T01:54:40;95084.03;;;18.27;100.00
4590;BME280;2307;48.448;9.216;2022-08-18T01:57:08;95082.25;;;18.23;100.00
4590;BME280;2307;48.448;9.216;2022-08-18T01:59:38;95084.34;;;18.26;100.00
4590;BME280;2307;48.448;9.216;2022-08-18T02:02:05;95084.25;;;18.31;100.00
4590;BME280;2307;48.448;9.216;2022-08-18T02:04:32;95080.28;;;18.28;100.00
4590;BME280;2307;48.448;9.216;2022-08-18T02:06:59;95073.34;;;18.27;100.00
4590;BME280;2307;48.448;9.216;2022-08-18T02:09:26;95071.53;;;18.23;100.00
4590;BME280;2307;48.448;9.216;2022-08-18T02:11:53;95078.47;;;18.24;100.00
4590;BME280;2307;48.448;9.216;2022-08-18T02:14:21;95081.44;;;18.22;100.00
4590;BME280;2307;48.448;9.216;2022-08-18T02:16:48;95084.34;;;18.26;100.00
4590;BME280;2307;48.448;9.216;2022-08-18T02:19:14;95083.22;;;18.27;100.00
4590;BME280;2307;48.448;9.216;2022-08-18T02:21:40;95077.47;;;18.20;100.00
4590;BME280;2307;48.448;9.216;2022-08-18T02:24:07;95078.06;;;18.17;100.00
4590;BME280;2307;48.448;9.216;2022-08-18T02:26:33;95077.13;;;18.26;100.00
4590;BME280;2307;48.448;9.216;2022-08-18T02:29:00;95070.97;;;18.26;100.00
4590;BME280;2307;48.448;9.216;2022-08-18T02:31:27;95063.22;;;18.24;100.00
4590;BME280;2307;48.448;9.216;2022-08-18T02:33:54;95073.13;;;18.24;100.00
4590;BME280;2307;48.448;9.216;2022-08-18T02:36:21;95073.47;;;18.17;100.00
4590;BME280;2307;48.448;9.216;2022-08-18T02:38:47;95061.34;;;18.06;100.00
4590;BME280;2307;48.448;9.216;2022-08-18T02:41:13;95056.81;;;18.07;100.00
4590;BME280;2307;48.448;9.216;2022-08-18T02:43:40;95054.63;;;18.09;100.00
4590;BME280;2307;48.448;9.216;2022-08-18T02:46:07;95060.91;;;18.18;100.00
4590;BME280;2307;48.448;9.216;2022-08-18T02:48:35;95063.22;;;18.24;100.00
4590;BME280;2307;48.448;9.216;2022-08-18T02:51:02;95066.69;;;18.25;100.00
4590;BME280;2307;48.448;9.216;2022-08-18T02:53:29;95068.78;;;18.28;100.00
4590;BME280;2307;48.448;9.216;2022-08-18T02:56:03;95054.84;;;18.31;100.00
4590;BME280;2307;48.448;9.216;2022-08-18T02:58:31;95050.56;;;18.30;100.00
4590;BME280;2307;48.448;9.216;2022-08-18T03:00:57;95040.38;;;18.32;100.00
4590;BME280;2307;48.448;9.216;2022-08-18T03:03:24;95043.56;;;18.34;100.00
4590;BME280;2307;48.448;9.216;2022-08-18T03:05:52;95050.56;;;18.30;100.00
4590;BME280;2307;48.448;9.216;2022-08-18T03:08:18;95049.16;;;18.19;100.00
4590;BME280;2307;48.448;9.216;2022-08-18T03:10:44;95047.75;;;18.21;100.00
4590;BME280;2307;48.448;9.216;2022-08-18T03:13:11;95037.38;;;18.20;100.00
4590;BME280;2307;48.448;9.216;2022-08-18T03:15:37;95029.72;;;18.13;100.00
4590;BME280;2307;48.448;9.216;2022-08-18T03:18:04;95026.75;;;18.15;100.00
4590;BME280;2307;48.448;9.216;2022-08-18T03:20:30;95022.50;;;18.14;100.00
4590;BME280;2307;48.448;9.216;2022-08-18T03:22:59;95031.88;;;18.11;100.00
4590;BME280;2307;48.448;9.216;2022-08-18T03:25:27;95039.03;;;18.16;100.00
4590;BME280;2307;48.448;9.216;2022-08-18T03:27:53;95038.44;;;18.19;100.00
4590;BME280;2307;48.448;9.216;2022-08-18T03:30:20;95036.22;;;18.26;100.00
4590;BME280;2307;48.448;9.216;2022-08-18T03:32:47;95033.16;;;18.32;100.00
4590;BME280;2307;48.448;9.216;2022-08-18T03:35:14;95039.88;;;18.30;100.00
4590;BME280;2307;48.448;9.216;2022-08-18T03:37:41;95035.03;;;18.32;100.00
4590;BME280;2307;48.448;9.216;2022-08-18T03:40:09;95046.75;;;18.36;100.00
4590;BME280;2307;48.448;9.216;2022-08-18T03:42:35;95041.91;;;18.38;100.00
4590;BME280;2307;48.448;9.216;2022-08-18T03:45:02;95047.81;;;18.35;100.00
4590;BME280;2307;48.448;9.216;2022-08-18T03:47:29;95051.00;;;18.37;100.00
4590;BME280;2307;48.448;9.216;2022-08-18T03:49:55;95056.88;;;18.39;100.00
4590;BME280;2307;48.448;9.216;2022-08-18T03:52:23;95050.41;;;18.40;100.00
4590;BME280;2307;48.448;9.216;2022-08-18T03:54:49;95046.38;;;18.24;100.00
4590;BME280;2307;48.448;9.216;2022-08-18T03:57:18;95050.97;;;18.23;100.00
4590;BME280;2307;48.448;9.216;2022-08-18T03:59:44;95056.72;;;18.30;100.00
4590;BME280;2307;48.448;9.216;2022-08-18T04:02:11;95058.09;;;18.28;100.00
4590;BME280;2307;48.448;9.216;2022-08-18T04:04:39;95057.00;;;18.29;100.00
4590;BME280;2307;48.448;9.216;2022-08-18T04:07:08;95051.66;;;18.29;100.00
4590;BME280;2307;48.448;9.216;2022-08-18T04:09:35;95047.81;;;18.35;100.00
4590;BME280;2307;48.448;9.216;2022-08-18T04:12:03;95044.66;;;18.33;100.00
4590;BME280;2307;48.448;9.216;2022-08-18T04:14:33;95046.53;;;18.32;100.00
4590;BME280;2307;48.448;9.216;2022-08-18T04:16:59;95050.78;;;18.33;100.00
4590;BME280;2307;48.448;9.216;2022-08-18T04:19:25;95054.84;;;18.31;100.00
4590;BME280;2307;48.448;9.216;2022-08-18T04:21:52;95061.84;;;18.27;100.00
4590;BME280;2307;48.448;9.216;2022-08-18T04:24:18;95054.06;;;18.12;100.00
4590;BME280;2307;48.448;9.216;2022-08-18T04:26:45;95053.41;;;18.20;100.00
4590;BME280;2307;48.448;9.216;2022-08-18T04:29:12;95053.47;;;18.15;100.00
4590;BME280;2307;48.448;9.216;2022-08-18T04:31:41;95046.41;;;18.05;100.00
4590;BME280;2307;48.448;9.216;2022-08-18T04:34:07;95050.81;;;17.77;100.00
4590;BME280;2307;48.448;9.216;2022-08-18T04:36:34;95052.56;;;17.63;100.00
4590;BME280;2307;48.448;9.216;2022-08-18T04:39:02;95050.78;;;17.59;100.00
4590;BME280;2307;48.448;9.216;2022-08-18T04:41:28;95060.09;;;17.61;100.00
4590;BME280;2307;48.448;9.216;2022-08-18T04:43:55;95065.22;;;17.76;100.00
4590;BME280;2307;48.448;9.216;2022-08-18T04:46:22;95069.81;;;17.94;100.00
4590;BME280;2307;48.448;9.216;2022-08-18T04:48:50;95067.88;;;18.00;100.00
4590;BME280;2307;48.448;9.216;2022-08-18T04:51:22;95068.72;;;17.77;100.00
4590;BME280;2307;48.448;9.216;2022-08-18T04:53:49;95074.84;;;17.77;100.00
4590;BME280;2307;48.448;9.216;2022-08-18T04:56:16;95075.16;;;17.94;100.00
4590;BME280;2307;48.448;9.216;2022-08-18T04:58:45;95087.28;;;18.05;100.00
4590;BME280;2307;48.448;9.216;2022-08-18T05:01:13;95084.84;;;18.09;100.00
4590;BME280;2307;48.448;9.216;2022-08-18T05:03:41;95084.16;;;17.98;100.00
4590;BME280;2307;48.448;9.216;2022-08-18T05:06:10;95077.75;;;17.99;100.00
4590;BME280;2307;48.448;9.216;2022-08-18T05:08:36;95076.91;;;18.04;100.00
4590;BME280;2307;48.448;9.216;2022-08-18T05:11:03;95076.81;;;18.09;100.00
4590;BME280;2307;48.448;9.216;2022-08-18T05:13:29;95070.53;;;18.19;100.00
4590;BME280;2307;48.448;9.216;2022-08-18T05:15:56;95058.75;;;18.20;100.00
4590;BME280;2307;48.448;9.216;2022-08-18T05:18:28;95058.31;;;18.31;100.00
4590;BME280;2307;48.448;9.216;2022-08-18T05:20:54;95059.31;;;18.35;100.00
4590;BME280;2307;48.448;9.216;2022-08-18T05:23:22;95061.31;;;18.43;100.00
4590;BME280;2307;48.448;9.216;2022-08-18T05:25:49;95059.94;;;18.46;100.00
4590;BME280;2307;48.448;9.216;2022-08-18T05:28:21;95060.88;;;18.36;100.00
4590;BME280;2307;48.448;9.216;2022-08-18T05:30:47;95052.16;;;18.31;100.00
4590;BME280;2307;48.448;9.216;2022-08-18T05:33:14;95058.69;;;18.25;100.00
4590;BME280;2307;48.448;9.216;2022-08-18T05:35:42;95052.25;;;18.26;100.00
4590;BME280;2307;48.448;9.216;2022-08-18T05:38:21;95054.03;;;18.30;100.00
4590;BME280;2307;48.448;9.216;2022-08-18T05:41:02;95054.84;;;18.31;100.00
4590;BME280;2307;48.448;9.216;2022-08-18T05:43:30;95063.56;;;18.36;100.00
4590;BME280;2307;48.448;9.216;2022-08-18T05:45:56;95066.66;;;18.43;100.00
4590;BME280;2307;48.448;9.216;2022-08-18T05:48:24;95078.25;;;18.39;100.00
4590;BME280;2307;48.448;9.216;2022-08-18T05:50:50;95072.22;;;18.47;100.00
4590;BME280;2307;48.448;9.216;2022-08-18T05:53:17;95070.72;;;18.41;100.00
4590;BME280;2307;48.448;9.216;2022-08-18T05:55:45;95071.00;;;18.39;100.00
4590;BME280;2307;48.448;9.216;2022-08-18T05:58:32;95073.03;;;18.47;100.00
4590;BME280;2307;48.448;9.216;2022-08-18T06:01:00;95073.50;;;18.54;100.00
4590;BME280;2307;48.448;9.216;2022-08-18T06:03:29;95083.03;;;18.61;100.00
4590;BME280;2307;48.448;9.216;2022-08-18T06:05:58;95090.00;;;18.75;100.00
4590;BME280;2307;48.448;9.216;2022-08-18T06:08:27;95089.34;;;18.83;100.00
4590;BME280;2307;48.448;9.216;2022-08-18T06:10:55;95084.97;;;18.87;100.00
4590;BME280;2307;48.448;9.216;2022-08-18T06:13:22;95074.84;;;18.84;100.00
4590;BME280;2307;48.448;9.216;2022-08-18T06:15:51;95075.22;;;18.78;100.00
4590;BME280;2307;48.448;9.216;2022-08-18T06:21:10;95074.19;;;18.92;100.00
4590;BME280;2307;48.448;9.216;2022-08-18T06:23:44;95069.25;;;18.99;100.00
4590;BME280;2307;48.448;9.216;2022-08-18T06:26:16;95078.47;;;19.07;100.00
4590;BME280;2307;48.448;9.216;2022-08-18T06:28:47;95078.88;;;19.14;100.00
4590;BME280;2307;48.448;9.216;2022-08-18T06:31:19;95077.50;;;19.17;100.00
4590;BME280;2307;48.448;9.216;2022-08-18T06:33:52;95070.06;;;19.27;100.00
4590;BME280;2307;48.448;9.216;2022-08-18T06:36:26;95067.47;;;19.36;100.00
4590;BME280;2307;48.448;9.216;2022-08-18T06:38:59;95073.63;;;19.36;100.00
4590;BME280;2307;48.448;9.216;2022-08-18T06:41:33;95081.34;;;19.38;100.00
4590;BME280;2307;48.448;9.216;2022-08-18T06:44:02;95073.00;;;18.98;100.00
4590;BME280;2307;48.448;9.216;2022-08-18T06:46:37;95074.84;;;18.84;100.00
4590;BME280;2307;48.448;9.216;2022-08-18T06:49:05;95091.44;;;18.86;100.00
4590;BME280;2307;48.448;9.216;2022-08-18T06:51:33;95099.44;;;18.86;100.00
4590;BME280;2307;48.448;9.216;2022-08-18T06:54:01;95099.69;;;18.71;100.00
4590;BME280;2307;48.448;9.216;2022-08-18T06:56:34;95107.66;;;18.76;100.00
4590;BME280;2307;48.448;9.216;2022-08-18T06:59:18;95122.31;;;18.79;100.00
4590;BME280;2307;48.448;9.216;2022-08-18T07:01:47;95128.38;;;18.84;100.00
4590;BME280;2307;48.448;9.216;2022-08-18T07:04:29;95129.25;;;18.80;100.00
4590;BME280;2307;48.448;9.216;2022-08-18T07:06:56;95146.94;;;18.94;100.00
4590;BME280;2307;48.448;9.216;2022-08-18T07:09:23;95147.00;;;19.08;100.00
4590;BME280;2307;48.448;9.216;2022-08-18T07:11:58;95153.19;;;18.90;100.00
4590;BME280;2307;48.448;9.216;2022-08-18T07:14:25;95150.81;;;18.70;100.00
4590;BME280;2307;48.448;9.216;2022-08-18T07:17:05;95147.94;;;18.66;100.00
4590;BME280;2307;48.448;9.216;2022-08-18T07:19:32;95163.16;;;18.47;100.00
4590;BME280;2307;48.448;9.216;2022-08-18T07:22:00;95161.88;;;18.26;100.00
4590;BME280;2307;48.448;9.216;2022-08-18T07:24:28;95159.69;;;18.28;100.00
4590;BME280;2307;48.448;9.216;2022-08-18T07:26:58;95151.03;;;18.36;100.00
4590;BME280;2307;48.448;9.216;2022-08-18T07:29:26;95149.28;;;18.45;100.00
4590;BME280;2307;48.448;9.216;2022-08-18T07:31:53;95154.66;;;18.45;100.00
4590;BME280;2307;48.448;9.216;2022-08-18T07:34:22;95158.97;;;18.41;100.00
4590;BME280;2307;48.448;9.216;2022-08-18T07:36:51;95161.91;;;18.39;100.00
4590;BME280;2307;48.448;9.216;2022-08-18T07:39:20;95166.41;;;18.44;100.00
4590;BME280;2307;48.448;9.216;2022-08-18T07:41:49;95175.00;;;18.41;100.00
4590;BME280;2307;48.448;9.216;2022-08-18T07:44:16;95168.22;;;18.48;100.00
4590;BME280;2307;48.448;9.216;2022-08-18T07:46:49;95146.78;;;18.53;100.00
4590;BME280;2307;48.448;9.216;2022-08-18T07:49:18;95121.97;;;18.48;100.00
4590;BME280;2307;48.448;9.216;2022-08-18T07:51:47;95101.53;;;18.57;100.00
4590;BME280;2307;48.448;9.216;2022-08-18T07:54:17;95086.59;;;18.70;100.00
4590;BME280;2307;48.448;9.216;2022-08-18T07:56:46;95079.72;;;18.82;100.00
4590;BME280;2307;48.448;9.216;2022-08-18T07:59:14;95092.66;;;19.07;100.00
4590;BME280;2307;48.448;9.216;2022-08-18T08:01:43;95118.81;;;19.10;100.00
4590;BME280;2307;48.448;9.216;2022-08-18T08:04:14;95121.78;;;19.09;100.00
4590;BME280;2307;48.448;9.216;2022-08-18T08:06:44;95124.38;;;19.14;100.00
4590;BME280;2307;48.448;9.216;2022-08-18T08:09:16;95128.06;;;19.32;100.00
4590;BME280;2307;48.448;9.216;2022-08-18T08:11:47;95124.06;;;19.48;100.00
4590;BME280;2307;48.448;9.216;2022-08-18T08:14:18;95131.19;;;19.66;100.00
4590;BME280;2307;48.448;9.216;2022-08-18T08:16:49;95136.38;;;19.76;100.00
4590;BME280;2307;48.448;9.216;2022-08-18T08:19:33;95142.94;;;19.84;100.00
4590;BME280;2307;48.448;9.216;2022-08-18T08:22:03;95133.56;;;19.95;100.00
4590;BME280;2307;48.448;9.216;2022-08-18T08:24:33;95126.13;;;20.05;100.00
4590;BME280;2307;48.448;9.216;2022-08-18T08:27:08;95136.53;;;20.21;100.00
4590;BME280;2307;48.448;9.216;2022-08-18T08:29:39;95120.16;;;20.36;100.00
4590;BME280;2307;48.448;9.216;2022-08-18T08:32:10;95118.94;;;20.42;100.00
4590;BME280;2307;48.448;9.216;2022-08-18T08:34:39;95122.16;;;20.52;100.00
4590;BME280;2307;48.448;9.216;2022-08-18T08:37:08;95129.91;;;20.54;100.00
4590;BME280;2307;48.448;9.216;2022-08-18T08:39:39;95122.97;;;20.53;100.00
4590;BME280;2307;48.448;9.216;2022-08-18T08:42:07;95136.50;;;20.48;100.00
4590;BME280;2307;48.448;9.216;2022-08-18T08:44:36;95122.34;;;20.56;100.00
4590;BME280;2307;48.448;9.216;2022-08-18T08:47:07;95113.31;;;20.52;100.00
4590;BME280;2307;48.448;9.216;2022-08-18T08:49:37;95109.31;;;20.63;100.00
4590;BME280;2307;48.448;9.216;2022-08-18T08:52:06;95103.13;;;20.62;100.00
4590;BME280;2307;48.448;9.216;2022-08-18T08:54:37;95101.00;;;20.73;100.00
4590;BME280;2307;48.448;9.216;2022-08-18T08:57:07;95118.75;;;20.60;100.00
4590;BME280;2307;48.448;9.216;2022-08-18T08:59:34;95111.50;;;20.61;100.00
4590;BME280;2307;48.448;9.216;2022-08-18T09:02:06;95093.19;;;20.63;100.00
4590;BME280;2307;48.448;9.216;2022-08-18T09:04:39;95097.81;;;20.71;100.00
4590;BME280;2307;48.448;9.216;2022-08-18T09:07:24;95099.19;;;20.82;100.00
4590;BME280;2307;48.448;9.216;2022-08-18T09:12:42;95109.06;;;20.95;100.00
4590;BME280;2307;48.448;9.216;2022-08-18T09:18:20;95116.19;;;21.22;100.00
4590;BME280;2307;48.448;9.216;2022-08-18T09:20:55;95128.38;;;21.28;100.00
4590;BME280;2307;48.448;9.216;2022-08-18T09:23:29;95136.50;;;21.37;100.00
4590;BME280;2307;48.448;9.216;2022-08-18T09:25:58;95129.88;;;21.43;100.00
4590;BME280;2307;48.448;9.216;2022-08-18T09:28:41;95131.81;;;21.51;100.00
4590;BME280;2307;48.448;9.216;2022-08-18T09:31:20;95130.44;;;21.62;100.00
4590;BME280;2307;48.448;9.216;2022-08-18T09:36:37;95135.41;;;21.86;100.00
4590;BME280;2307;48.448;9.216;2022-08-18T09:39:08;95128.69;;;21.97;100.00
4590;BME280;2307;48.448;9.216;2022-08-18T09:41:58;95125.09;;;22.18;100.00
4590;BME280;2307;48.448;9.216;2022-08-18T09:47:12;95123.88;;;22.42;100.00
4590;BME280;2307;48.448;9.216;2022-08-18T09:49:59;95122.91;;;22.55;100.00
4590;BME280;2307;48.448;9.216;2022-08-18T09:52:46;95122.00;;;22.77;100.00
4590;BME280;2307;48.448;9.216;2022-08-18T10:00:35;95114.69;;;23.11;100.00
4590;BME280;2307;48.448;9.216;2022-08-18T10:03:09;95112.75;;;23.20;100.00
4590;BME280;2307;48.448;9.216;2022-08-18T10:05:38;95117.59;;;23.44;100.00
4590;BME280;2307;48.448;9.216;2022-08-18T10:10:52;95101.72;;;23.51;100.00
4590;BME280;2307;48.448;9.216;2022-08-18T10:13:23;95094.91;;;23.54;96.62
4590;BME280;2307;48.448;9.216;2022-08-18T10:15:59;95092.88;;;23.42;100.00
4590;BME280;2307;48.448;9.216;2022-08-18T10:18:45;95090.75;;;23.56;100.00
4590;BME280;2307;48.448;9.216;2022-08-18T10:21:18;95083.69;;;23.35;97.16
4590;BME280;2307;48.448;9.216;2022-08-18T10:23:52;95068.44;;;23.39;100.00
4590;BME280;2307;48.448;9.216;2022-08-18T10:29:06;95047.84;;;22.88;100.00
4590;BME280;2307;48.448;9.216;2022-08-18T10:32:16;95053.34;;;23.08;100.00
4590;BME280;2307;48.448;9.216;2022-08-18T10:34:37;95069.13;;;23.27;100.00
4590;BME280;2307;48.448;9.216;2022-08-18T10:37:04;95072.28;;;23.29;100.00
4590;BME280;2307;48.448;9.216;2022-08-18T10:39:42;95060.97;;;23.53;100.00
4590;BME280;2307;48.448;9.216;2022-08-18T10:42:09;95051.59;;;23.59;100.00
4590;BME280;2307;48.448;9.216;2022-08-18T10:44:39;95059.56;;;23.85;99.11
4590;BME280;2307;48.448;9.216;2022-08-18T10:47:07;95057.81;;;23.80;100.00
4590;BME280;2307;48.448;9.216;2022-08-18T10:49:36;95055.13;;;24.01;97.14
4590;BME280;2307;48.448;9.216;2022-08-18T10:52:19;95041.53;;;23.97;100.00
4590;BME280;2307;48.448;9.216;2022-08-18T10:54:58;95021.44;;;24.15;100.00
4590;BME280;2307;48.448;9.216;2022-08-18T10:57:27;95022.22;;;24.37;98.56
4590;BME280;2307;48.448;9.216;2022-08-18T10:59:57;95025.91;;;24.65;94.74
4590;BME280;2307;48.448;9.216;2022-08-18T11:02:34;95024.34;;;24.97;90.17
4590;BME280;2307;48.448;9.216;2022-08-18T11:05:09;95025.41;;;25.16;87.37
4590;BME280;2307;48.448;9.216;2022-08-18T11:07:36;95036.91;;;25.25;91.91
4590;BME280;2307;48.448;9.216;2022-08-18T11:10:14;95030.50;;;25.18;85.32
4590;BME280;2307;48.448;9.216;2022-08-18T11:12:47;95026.34;;;25.20;87.45
4590;BME280;2307;48.448;9.216;2022-08-18T11:15:20;95033.53;;;25.16;84.84
4590;BME280;2307;48.448;9.216;2022-08-18T11:17:53;95021.66;;;24.97;87.73
4590;BME280;2307;48.448;9.216;2022-08-18T11:20:28;95021.81;;;24.79;86.87
4590;BME280;2307;48.448;9.216;2022-08-18T11:22:56;95019.59;;;24.81;87.33
4590;BME280;2307;48.448;9.216;2022-08-18T11:25:25;95027.81;;;24.64;88.61
4590;BME280;2307;48.448;9.216;2022-08-18T11:27:52;95029.66;;;24.40;90.14
4590;BME280;2307;48.448;9.216;2022-08-18T11:30:18;95032.88;;;24.54;90.83
4590;BME280;2307;48.448;9.216;2022-08-18T11:32:45;95025.31;;;24.47;94.10
4590;BME280;2307;48.448;9.216;2022-08-18T11:35:14;95015.13;;;24.65;92.11
4590;BME280;2307;48.448;9.216;2022-08-18T11:37:45;95003.97;;;24.99;89.98
4590;BME280;2307;48.448;9.216;2022-08-18T11:40:20;94992.88;;;24.80;88.33
4590;BME280;2307;48.448;9.216;2022-08-18T11:42:49;94997.34;;;24.64;93.53
4590;BME280;2307;48.448;9.216;2022-08-18T11:45:20;94983.88;;;24.76;90.59
4590;BME280;2307;48.448;9.216;2022-08-18T11:47:57;94980.44;;;24.88;89.78
4590;BME280;2307;48.448;9.216;2022-08-18T11:50:25;94985.16;;;24.91;90.84
4590;BME280;2307;48.448;9.216;2022-08-18T11:52:53;94985.16;;;24.91;89.25
4590;BME280;2307;48.448;9.216;2022-08-18T11:55:27;94984.94;;;24.83;87.86
4590;BME280;2307;48.448;9.216;2022-08-18T11:57:54;94983.75;;;24.72;89.37
4590;BME280;2307;48.448;9.216;2022-08-18T12:00:52;94989.34;;;24.88;90.61
4590;BME280;2307;48.448;9.216;2022-08-18T12:03:22;94990.81;;;24.98;89.40
4590;BME280;2307;48.448;9.216;2022-08-18T12:05:52;94994.78;;;25.24;85.84
4590;BME280;2307;48.448;9.216;2022-08-18T12:08:22;94997.47;;;25.12;86.23
4590;BME280;2307;48.448;9.216;2022-08-18T12:11:00;95004.72;;;25.20;85.77
4590;BME280;2307;48.448;9.216;2022-08-18T12:13:28;94998.06;;;25.30;84.09
4590;BME280;2307;48.448;9.216;2022-08-18T12:16:08;94992.88;;;25.13;83.52
4590;BME280;2307;48.448;9.216;2022-08-18T12:18:35;94993.38;;;25.51;82.92
4590;BME280;2307;48.448;9.216;2022-08-18T12:21:01;94981.97;;;25.70;77.33
4590;BME280;2307;48.448;9.216;2022-08-18T12:23:29;94981.41;;;25.64;77.79
4590;BME280;2307;48.448;9.216;2022-08-18T12:25:56;94972.94;;;25.66;80.11
4590;BME280;2307;48.448;9.216;2022-08-18T12:28:22;94977.06;;;26.00;76.67
4590;BME280;2307;48.448;9.216;2022-08-18T12:30:50;94971.94;;;26.10;77.08
4590;BME280;2307;48.448;9.216;2022-08-18T12:33:17;94963.06;;;26.10;76.70
4590;BME280;2307;48.448;9.216;2022-08-18T12:35:43;94965.66;;;26.06;76.39
4590;BME280;2307;48.448;9.216;2022-08-18T12:38:10;94948.47;;;26.14;77.72
4590;BME280;2307;48.448;9.216;2022-08-18T12:40:38;94947.16;;;26.08;77.07
4590;BME280;2307;48.448;9.216;2022-08-18T12:43:05;94952.09;;;26.46;74.78
4590;BME280;2307;48.448;9.216;2022-08-18T12:45:32;94944.72;;;26.59;70.31
4590;BME280;2307;48.448;9.216;2022-08-18T12:47:58;94947.50;;;26.47;71.24
4590;BME280;2307;48.448;9.216;2022-08-18T12:50:26;94945.63;;;26.35;73.23
4590;BME280;2307;48.448;9.216;2022-08-18T12:52:53;94947.66;;;26.38;74.02
4590;BME280;2307;48.448;9.216;2022-08-18T12:55:19;94942.94;;;26.23;72.40
4590;BME280;2307;48.448;9.216;2022-08-18T12:57:47;94943.13;;;26.02;73.22
4590;BME280;2307;48.448;9.216;2022-08-18T13:00:14;94931.84;;;26.00;75.63
4590;BME280;2307;48.448;9.216;2022-08-18T13:02:41;94941.59;;;25.77;75.16
4590;BME280;2307;48.448;9.216;2022-08-18T13:05:07;94946.69;;;25.66;76.27
4590;BME280;2307;48.448;9.216;2022-08-18T13:07:34;94941.16;;;25.63;73.94
4590;BME280;2307;48.448;9.216;2022-08-18T13:10:00;94942.19;;;25.46;76.14
4590;BME280;2307;48.448;9.216;2022-08-18T13:12:27;94932.72;;;25.16;81.33
4590;BME280;2307;48.448;9.216;2022-08-18T13:14:54;94941.16;;;25.02;83.15
4590;BME280;2307;48.448;9.216;2022-08-18T13:17:21;94942.75;;;25.15;80.65
4590;BME280;2307;48.448;9.216;2022-08-18T13:19:47;94933.63;;;25.20;81.12
4590;BME280;2307;48.448;9.216;2022-08-18T13:22:14;94937.47;;;25.07;79.88
4590;BME280;2307;48.448;9.216;2022-08-18T13:24:40;94942.00;;;24.70;81.68
4590;BME280;2307;48.448;9.216;2022-08-18T13:27:07;94935.88;;;24.61;80.82
4590;BME280;2307;48.448;9.216;2022-08-18T13:29:33;94928.09;;;24.47;83.57
4590;BME280;2307;48.448;9.216;2022-08-18T13:32:01;94930.44;;;24.37;83.56
4590;BME280;2307;48.448;9.216;2022-08-18T13:34:32;94929.41;;;24.29;85.73
4590;BME280;2307;48.448;9.216;2022-08-18T13:36:59;94939.28;;;24.25;84.68
4590;BME280;2307;48.448;9.216;2022-08-18T13:39:25;94931.50;;;24.23;86.76
4590;BME280;2307;48.448;9.216;2022-08-18T13:41:53;94921.31;;;24.29;88.57
4590;BME280;2307;48.448;9.216;2022-08-18T13:44:19;94931.31;;;24.28;90.00
4590;BME280;2307;48.448;9.216;2022-08-18T13:46:46;94925.69;;;24.33;88.90
4590;BME280;2307;48.448;9.216;2022-08-18T13:49:14;94933.41;;;24.23;89.85